createdAt,value
2019-05-17T00:02:08.297Z,13.40
2019-05-17T00:04:37.451Z,14.50
2019-05-17T00:07:06.763Z,13.87
2019-05-17T00:09:37.436Z,13.03
2019-05-17T00:12:07.550Z,14.00
2019-05-17T00:14:36.982Z,13.80
2019-05-17T00:17:06.685Z,13.90
2019-05-17T00:19:36.872Z,14.40
2019-05-17T00:22:07.366Z,14.53
2019-05-17T00:24:37.140Z,15.80
2019-05-17T00:27:06.792Z,16.20
2019-05-17T00:29:37.123Z,16.27
2019-05-17T00:32:06.876Z,17.30
2019-05-17T00:34:37.660Z,16.30
2019-05-17T00:37:07.249Z,17.27
2019-05-17T00:39:36.770Z,18.33
2019-05-17T00:42:06.969Z,17.87
2019-05-17T00:44:36.911Z,17.60
2019-05-17T00:47:06.552Z,18.87
2019-05-17T00:49:37.242Z,17.83
2019-05-17T00:52:07.178Z,19.30
2019-05-17T00:54:37.435Z,19.33
2019-05-17T00:57:07.642Z,20.60
2019-05-17T00:59:37.480Z,19.67
2019-05-17T01:02:07.191Z,19.77
2019-05-17T01:04:36.852Z,19.50
2019-05-17T01:07:07.428Z,19.27
2019-05-17T01:09:37.246Z,19.60
2019-05-17T01:12:07.252Z,20.40
2019-05-17T01:14:37.389Z,20.17
2019-05-17T01:17:07.167Z,21.47
2019-05-17T01:19:57.383Z,21.07
2019-05-17T01:22:26.817Z,21.20
2019-05-17T01:24:56.965Z,20.13
2019-05-17T01:27:26.441Z,21.80
2019-05-17T01:29:57.300Z,22.83
2019-05-17T01:32:26.764Z,21.50
2019-05-17T01:34:56.603Z,23.07
2019-05-17T01:37:27.719Z,22.00
2019-05-17T01:39:57.458Z,19.53
2019-05-17T01:42:26.841Z,22.97
2019-05-17T01:44:56.861Z,21.63
2019-05-17T01:47:27.239Z,23.03
2019-05-17T01:49:57.596Z,22.40
2019-05-17T01:52:27.437Z,23.53
2019-05-17T01:54:57.159Z,24.93
2019-05-17T01:57:27.446Z,25.10
2019-05-17T01:59:57.234Z,26.73
2019-05-17T02:02:32.323Z,27.73
2019-05-17T02:05:01.486Z,27.30
2019-05-17T02:07:30.800Z,28.23
2019-05-17T02:10:00.276Z,29.23
2019-05-17T02:12:29.454Z,30.77
2019-05-17T02:14:58.621Z,28.67
2019-05-17T02:17:27.884Z,31.77
2019-05-17T02:19:57.383Z,33.90
2019-05-17T02:22:27.190Z,35.30
2019-05-17T02:24:56.845Z,36.77
2019-05-17T02:27:31.624Z,36.37
2019-05-17T02:29:57.278Z,35.97
2019-05-17T02:32:26.843Z,36.37
2019-05-17T02:34:56.076Z,36.47
2019-05-17T02:37:25.701Z,38.93
2019-05-17T02:40:02.719Z,40.40
2019-05-17T02:42:25.847Z,37.57
2019-05-17T02:44:55.033Z,40.77
2019-05-17T02:47:24.530Z,40.67
2019-05-17T02:49:53.811Z,37.90
2019-05-17T02:52:23.176Z,39.93
2019-05-17T02:54:53.044Z,40.37
2019-05-17T02:57:23.328Z,41.23
2019-05-17T02:59:52.768Z,39.17
2019-05-17T03:02:27.527Z,38.43
2019-05-17T03:04:53.637Z,36.47
2019-05-17T03:07:23.311Z,35.80
2019-05-17T03:09:58.328Z,37.97
2019-05-17T03:12:24.026Z,37.27
2019-05-17T03:14:53.208Z,37.70
2019-05-17T03:17:22.929Z,36.07
2019-05-17T03:19:52.848Z,35.23
2019-05-17T03:22:23.202Z,30.90
2019-05-17T03:24:53.443Z,32.67
2019-05-17T03:27:23.410Z,30.50
2019-05-17T03:29:53.783Z,33.00
2019-05-17T03:32:26.393Z,31.50
2019-05-17T03:34:56.363Z,34.67
2019-05-17T03:37:32.570Z,33.97
2019-05-17T03:39:57.218Z,36.53
2019-05-17T03:42:27.175Z,37.53
2019-05-17T03:44:56.369Z,33.50
2019-05-17T03:47:25.866Z,38.60
2019-05-17T03:49:55.178Z,37.77
2019-05-17T03:52:24.360Z,38.80
2019-05-17T03:54:53.518Z,37.13
2019-05-17T03:57:23.865Z,37.67
2019-05-17T03:59:53.805Z,37.30
2019-05-17T04:02:23.268Z,36.70
2019-05-17T04:04:53.153Z,39.90
2019-05-17T04:07:23.553Z,39.27
2019-05-17T04:09:53.723Z,39.13
2019-05-17T04:12:23.467Z,39.30
2019-05-17T04:14:53.574Z,41.17
2019-05-17T04:17:23.012Z,40.17
2019-05-17T04:19:53.455Z,40.20
2019-05-17T04:22:24.007Z,41.57
2019-05-17T04:24:53.278Z,43.83
2019-05-17T04:27:23.090Z,45.60
2019-05-17T04:29:53.443Z,41.73
2019-05-17T04:32:23.335Z,44.07
2019-05-17T04:34:52.858Z,43.47
2019-05-17T04:37:22.820Z,46.47
2019-05-17T04:39:52.731Z,45.00
2019-05-17T04:42:22.889Z,44.60
2019-05-17T04:44:52.856Z,43.17
2019-05-17T04:47:23.107Z,42.87
2019-05-17T04:49:53.634Z,44.93
2019-05-17T04:52:23.258Z,43.17
2019-05-17T04:55:13.185Z,43.93
2019-05-17T04:57:43.980Z,43.23
2019-05-17T05:00:14.969Z,44.43
2019-05-17T05:02:44.472Z,41.67
2019-05-17T05:05:14.531Z,42.17
2019-05-17T05:07:44.272Z,41.17
2019-05-17T05:10:14.426Z,42.00
2019-05-17T05:12:44.351Z,39.53
2019-05-17T05:15:15.220Z,39.93
2019-05-17T05:17:44.837Z,40.50
2019-05-17T05:20:14.575Z,39.27
2019-05-17T05:22:43.827Z,38.77
2019-05-17T05:25:13.266Z,39.13
2019-05-17T05:27:43.063Z,39.60
2019-05-17T05:30:13.115Z,39.37
2019-05-17T05:32:42.987Z,37.60
2019-05-17T05:35:12.861Z,38.63
2019-05-17T05:37:42.745Z,37.20
2019-05-17T05:40:13.153Z,36.67
2019-05-17T05:42:43.033Z,36.43
2019-05-17T05:45:12.799Z,34.80
2019-05-17T05:47:42.285Z,36.40
2019-05-17T05:50:13.132Z,37.97
2019-05-17T05:52:42.746Z,37.27
2019-05-17T05:55:13.119Z,36.00
2019-05-17T05:57:42.681Z,38.17
2019-05-17T06:00:13.423Z,37.43
2019-05-17T06:02:43.029Z,36.80
2019-05-17T06:05:16.949Z,35.60
2019-05-17T06:07:43.603Z,34.40
2019-05-17T06:10:13.807Z,35.13
2019-05-17T06:12:43.798Z,33.30
2019-05-17T06:15:14.071Z,32.93
2019-05-17T06:17:43.295Z,33.33
2019-05-17T06:20:13.605Z,33.53
2019-05-17T06:22:43.132Z,33.07
2019-05-17T06:25:14.760Z,34.53
2019-05-17T06:27:43.605Z,34.83
2019-05-17T06:30:13.417Z,35.80
2019-05-17T06:32:43.677Z,36.43
2019-05-17T06:35:13.188Z,38.13
2019-05-17T06:37:42.740Z,35.43
2019-05-17T06:40:13.033Z,37.73
2019-05-17T06:42:45.511Z,36.23
2019-05-17T06:45:13.881Z,36.00
2019-05-17T06:47:43.533Z,33.70
2019-05-17T06:50:14.482Z,31.87
2019-05-17T06:52:44.203Z,33.20
2019-05-17T06:55:14.136Z,34.87
2019-05-17T06:57:43.872Z,34.87
2019-05-17T07:00:19.805Z,36.13
2019-05-17T07:02:44.248Z,35.47
2019-05-17T07:05:17.332Z,35.20
2019-05-17T07:07:46.473Z,33.97
2019-05-17T07:10:15.729Z,31.90
2019-05-17T07:12:56.012Z,33.53
2019-05-17T07:15:16.323Z,30.53
2019-05-17T07:17:45.581Z,32.77
2019-05-17T07:20:15.322Z,31.30
2019-05-17T07:22:44.980Z,29.53
2019-05-17T07:25:14.205Z,29.83
2019-05-17T07:27:45.899Z,28.27
2019-05-17T07:30:14.968Z,29.03
2019-05-17T07:32:44.264Z,29.57
2019-05-17T07:35:14.163Z,29.23
2019-05-17T07:37:43.423Z,28.73
2019-05-17T07:40:12.891Z,28.70
2019-05-17T07:42:42.126Z,27.33
2019-05-17T07:45:11.850Z,26.37
2019-05-17T07:47:41.020Z,27.63
2019-05-17T07:50:11.418Z,27.37
2019-05-17T07:52:40.940Z,26.13
2019-05-17T07:55:11.162Z,27.87
2019-05-17T07:57:41.243Z,26.10
2019-05-17T08:00:11.068Z,26.50
2019-05-17T08:02:40.591Z,26.13
2019-05-17T08:05:10.307Z,26.07
2019-05-17T08:07:40.820Z,25.27
2019-05-17T08:10:11.338Z,24.37
2019-05-17T08:12:41.234Z,26.00
2019-05-17T08:15:11.213Z,25.70
2019-05-17T08:17:40.914Z,25.50
2019-05-17T08:20:10.791Z,25.90
2019-05-17T08:22:40.319Z,25.27
2019-05-17T08:25:10.644Z,25.77
2019-05-17T08:27:40.440Z,25.30
2019-05-17T08:30:12.330Z,24.77
2019-05-17T08:32:41.550Z,24.53
2019-05-17T08:35:11.543Z,24.77
2019-05-17T08:37:42.287Z,22.30
2019-05-17T08:40:15.079Z,21.90
2019-05-17T08:42:42.903Z,19.93
2019-05-17T08:45:12.484Z,19.53
2019-05-17T08:47:42.083Z,20.07
2019-05-17T08:50:11.746Z,18.53
2019-05-17T08:52:41.348Z,18.10
2019-05-17T08:55:11.044Z,17.60
2019-05-17T08:57:40.427Z,17.50
2019-05-17T09:00:10.928Z,17.37
2019-05-17T09:02:41.103Z,17.53
2019-05-17T09:05:10.621Z,16.90
2019-05-17T09:07:40.525Z,17.90
2019-05-17T09:10:10.425Z,19.70
2019-05-17T09:12:40.886Z,22.37
2019-05-17T09:15:12.029Z,22.03
2019-05-17T09:17:41.271Z,22.07
2019-05-17T09:20:11.183Z,21.67
2019-05-17T09:22:40.684Z,22.43
2019-05-17T09:25:17.080Z,21.00
2019-05-17T09:27:41.465Z,20.83
2019-05-17T09:30:12.051Z,21.57
2019-05-17T09:32:41.539Z,19.90
2019-05-17T09:35:11.069Z,19.70
2019-05-17T09:37:41.453Z,17.87
2019-05-17T09:40:11.173Z,17.33
2019-05-17T09:42:41.431Z,18.13
2019-05-17T09:45:11.418Z,19.47
2019-05-17T09:47:41.664Z,19.73
2019-05-17T09:50:11.311Z,17.87
2019-05-17T09:52:45.429Z,17.00
2019-05-17T09:55:15.100Z,16.10
2019-05-17T09:57:44.275Z,17.27
2019-05-17T10:00:21.404Z,17.70
2019-05-17T10:02:52.004Z,17.57
2019-05-17T10:05:21.619Z,16.80
2019-05-17T10:07:51.168Z,16.63
2019-05-17T10:10:21.240Z,14.43
2019-05-17T10:12:50.515Z,14.90
2019-05-17T10:15:20.762Z,13.53
2019-05-17T10:17:50.150Z,13.00
2019-05-17T10:20:19.958Z,12.53
2019-05-17T10:22:50.382Z,13.67
2019-05-17T10:25:20.231Z,14.73
2019-05-17T10:27:49.944Z,14.30
2019-05-17T10:30:20.978Z,13.47
2019-05-17T10:32:50.814Z,13.73
2019-05-17T10:35:20.349Z,13.33
2019-05-17T10:37:50.508Z,12.83
2019-05-17T10:40:20.835Z,14.67
2019-05-17T10:42:50.210Z,15.03
2019-05-17T10:45:19.998Z,16.63
2019-05-17T10:47:50.274Z,14.63
2019-05-17T10:50:20.593Z,15.30
2019-05-17T10:52:50.126Z,16.47
2019-05-17T10:55:19.992Z,15.57
2019-05-17T10:57:50.102Z,14.53
2019-05-17T11:00:19.953Z,15.57
2019-05-17T11:02:50.329Z,14.97
2019-05-17T11:05:20.364Z,14.43
2019-05-17T11:07:50.429Z,15.13
2019-05-17T11:10:19.848Z,15.43
2019-05-17T11:12:49.119Z,15.50
2019-05-17T11:15:18.382Z,14.23
2019-05-17T11:17:47.656Z,14.63
2019-05-17T11:20:17.828Z,15.33
2019-05-17T11:22:47.004Z,13.47
2019-05-17T11:25:16.184Z,13.60
2019-05-17T11:27:45.784Z,13.67
2019-05-17T11:30:15.824Z,12.77
2019-05-17T11:32:45.354Z,14.50
2019-05-17T11:35:15.396Z,15.13
2019-05-17T11:37:44.644Z,15.13
2019-05-17T11:40:15.390Z,14.30
2019-05-17T11:42:44.685Z,14.37
2019-05-17T11:45:26.689Z,13.87
2019-05-17T11:47:44.858Z,13.63
2019-05-17T11:50:14.061Z,13.63
2019-05-17T11:52:43.594Z,13.90
2019-05-17T11:55:13.450Z,12.80
2019-05-17T11:57:42.614Z,12.17
2019-05-17T12:00:12.763Z,12.90
2019-05-17T12:02:42.014Z,14.30
2019-05-17T12:05:11.692Z,15.10
2019-05-17T12:07:41.108Z,14.60
2019-05-17T12:10:12.259Z,13.70
2019-05-17T12:12:41.484Z,14.60
2019-05-17T12:15:11.252Z,14.40
2019-05-17T12:17:40.452Z,14.47
2019-05-17T12:20:11.041Z,14.73
2019-05-17T12:22:40.212Z,14.83
2019-05-17T12:25:10.011Z,12.80
2019-05-17T12:27:39.259Z,12.63
2019-05-17T12:30:10.430Z,12.17
2019-05-17T12:32:39.725Z,11.47
2019-05-17T12:35:08.903Z,10.77
2019-05-17T12:37:38.465Z,10.40
2019-05-17T12:40:08.311Z,9.37
2019-05-17T12:42:37.565Z,9.50
2019-05-17T12:45:07.058Z,10.03
2019-05-17T12:47:36.255Z,9.07
2019-05-17T12:50:05.851Z,9.60
2019-05-17T12:52:35.052Z,10.63
2019-05-17T12:55:04.547Z,10.43
2019-05-17T12:57:33.794Z,11.37
2019-05-17T13:00:03.226Z,11.27
2019-05-17T13:02:32.471Z,11.97
2019-05-17T13:05:01.789Z,10.77
2019-05-17T13:07:31.048Z,10.77
2019-05-17T13:10:00.485Z,11.60
2019-05-17T13:12:29.722Z,11.50
2019-05-17T13:14:59.227Z,11.43
2019-05-17T13:17:28.449Z,12.17
2019-05-17T13:19:57.705Z,12.07
2019-05-17T13:22:26.967Z,11.87
2019-05-17T13:24:56.264Z,12.13
2019-05-17T13:27:25.583Z,12.57
2019-05-17T13:29:54.831Z,11.07
2019-05-17T13:32:24.152Z,10.93
2019-05-17T13:34:53.383Z,10.87
2019-05-17T13:37:22.550Z,10.80
2019-05-17T13:39:51.792Z,10.90
2019-05-17T13:42:20.954Z,11.23
2019-05-17T13:44:50.260Z,10.80
2019-05-17T13:47:19.524Z,9.47
2019-05-17T13:49:48.788Z,8.27
2019-05-17T13:52:17.993Z,9.67
2019-05-17T13:54:47.325Z,8.60
2019-05-17T13:57:19.214Z,8.87
2019-05-17T13:59:48.384Z,8.50
2019-05-17T14:02:17.944Z,8.57
2019-05-17T14:04:47.108Z,8.77
2019-05-17T14:07:16.341Z,8.63
2019-05-17T14:09:45.509Z,9.30
2019-05-17T14:12:15.005Z,9.17
2019-05-17T14:14:44.159Z,9.33
2019-05-17T14:17:13.435Z,9.63
2019-05-17T14:19:42.680Z,9.97
2019-05-17T14:22:11.983Z,10.83
2019-05-17T14:24:41.553Z,11.10
2019-05-17T14:27:11.179Z,10.50
2019-05-17T14:29:40.771Z,10.07
2019-05-17T14:32:10.490Z,11.17
2019-05-17T14:34:40.405Z,10.10
2019-05-17T14:37:09.774Z,9.73
2019-05-17T14:39:39.145Z,10.07
2019-05-17T14:42:08.438Z,9.93
2019-05-17T14:44:37.683Z,10.10
2019-05-17T14:47:07.506Z,10.07
2019-05-17T14:49:37.039Z,10.03
2019-05-17T14:52:06.348Z,9.60
2019-05-17T14:54:35.631Z,9.97
2019-05-17T14:57:05.070Z,10.00
2019-05-17T14:59:34.326Z,10.77
2019-05-17T15:02:03.950Z,10.67
2019-05-17T15:04:33.468Z,11.23
2019-05-17T15:07:02.621Z,10.90
2019-05-17T15:09:32.089Z,9.97
2019-05-17T15:12:01.561Z,11.40
2019-05-17T15:14:30.844Z,10.83
2019-05-17T15:17:00.290Z,11.10
2019-05-17T15:19:29.798Z,10.60
2019-05-17T15:21:58.969Z,10.97
2019-05-17T15:24:28.157Z,10.97
2019-05-17T15:27:05.476Z,10.87
2019-05-17T15:29:28.301Z,11.30
2019-05-17T15:31:57.537Z,10.97
2019-05-17T15:34:26.840Z,10.33
2019-05-17T15:36:56.054Z,11.10
2019-05-17T15:39:25.783Z,10.60
2019-05-17T15:41:55.018Z,10.33
2019-05-17T15:44:26.944Z,10.27
2019-05-17T15:46:55.317Z,10.93
2019-05-17T15:49:24.921Z,11.53
2019-05-17T15:51:54.244Z,12.33
2019-05-17T15:54:23.573Z,11.23
2019-05-17T15:56:53.097Z,11.87
2019-05-17T15:59:22.598Z,11.77
2019-05-17T16:01:51.896Z,10.67
2019-05-17T16:04:21.223Z,10.57
2019-05-17T16:06:50.513Z,11.37
2019-05-17T16:09:19.792Z,11.40
2019-05-17T16:11:48.954Z,11.20
2019-05-17T16:14:18.181Z,11.60
2019-05-17T16:16:48.230Z,11.93
2019-05-17T16:19:17.553Z,11.50
2019-05-17T16:21:47.321Z,11.33
2019-05-17T16:24:16.644Z,11.30
2019-05-17T16:26:45.915Z,12.03
2019-05-17T16:29:15.243Z,11.43
2019-05-17T16:31:44.864Z,11.30
2019-05-17T16:34:14.547Z,8.70
2019-05-17T16:36:43.989Z,10.80
2019-05-17T16:39:13.157Z,11.13
2019-05-17T16:41:43.916Z,11.57
2019-05-17T16:44:14.760Z,11.87
2019-05-17T16:46:44.408Z,11.07
2019-05-17T16:49:13.754Z,11.20
2019-05-17T16:51:43.317Z,10.70
2019-05-17T16:54:12.737Z,11.67
2019-05-17T16:56:41.919Z,11.67
2019-05-17T16:59:11.439Z,11.10
2019-05-17T17:01:40.671Z,12.07
2019-05-17T17:04:09.913Z,12.20
2019-05-17T17:06:39.225Z,11.60
2019-05-17T17:09:08.492Z,11.60
2019-05-17T17:11:37.752Z,12.07
2019-05-17T17:14:07.089Z,12.20
2019-05-17T17:16:36.314Z,11.00
2019-05-17T17:19:05.654Z,10.50
2019-05-17T17:21:34.877Z,9.73
2019-05-17T17:24:04.146Z,10.70
2019-05-17T17:26:33.467Z,11.23
2019-05-17T17:29:02.941Z,10.50
2019-05-17T17:31:32.287Z,10.87
2019-05-17T17:34:01.544Z,10.90
2019-05-17T17:36:30.885Z,10.13
2019-05-17T17:39:00.198Z,10.63
2019-05-17T17:41:29.698Z,10.13
2019-05-17T17:43:59.464Z,10.90
2019-05-17T17:46:28.790Z,10.57
2019-05-17T17:48:58.584Z,11.80
2019-05-17T17:51:28.075Z,13.03
2019-05-17T17:53:57.329Z,12.30
2019-05-17T17:56:26.559Z,11.63
2019-05-17T17:58:55.899Z,11.17
2019-05-17T18:01:25.138Z,12.20
2019-05-17T18:03:54.659Z,12.10
2019-05-17T18:06:24.163Z,12.43
2019-05-17T18:08:53.387Z,12.53
2019-05-17T18:11:22.663Z,12.00
2019-05-17T18:13:51.915Z,12.80
2019-05-17T18:16:21.121Z,12.30
2019-05-17T18:18:50.476Z,12.87
2019-05-17T18:21:19.665Z,13.20
2019-05-17T18:23:49.271Z,12.77
2019-05-17T18:26:18.568Z,13.40
2019-05-17T18:28:48.166Z,12.90
2019-05-17T18:31:17.684Z,13.07
2019-05-17T18:33:47.268Z,13.33
2019-05-17T18:36:16.803Z,14.53
2019-05-17T18:38:49.561Z,14.63
2019-05-17T18:41:18.931Z,14.67
2019-05-17T18:43:48.500Z,16.27
2019-05-17T18:46:18.115Z,14.97
2019-05-17T18:48:47.413Z,13.07
2019-05-17T18:51:16.624Z,13.20
2019-05-17T18:53:46.708Z,13.03
2019-05-17T18:56:16.559Z,12.97
2019-05-17T18:58:46.107Z,13.50
2019-05-17T19:01:15.472Z,12.97
2019-05-17T19:03:44.657Z,13.87
2019-05-17T19:06:14.248Z,13.00
2019-05-17T19:08:43.821Z,13.60
2019-05-17T19:11:13.332Z,13.50
2019-05-17T19:13:42.853Z,12.80
2019-05-17T19:16:12.080Z,12.13
2019-05-17T19:18:41.864Z,12.83
2019-05-17T19:21:11.106Z,12.83
2019-05-17T19:23:40.354Z,13.27
2019-05-17T19:26:09.964Z,13.33
2019-05-17T19:28:39.144Z,13.00
2019-05-17T19:31:09.027Z,13.07
2019-05-17T19:33:39.175Z,12.23
2019-05-17T19:36:09.093Z,13.10
2019-05-17T19:38:38.766Z,13.73
2019-05-17T19:41:08.484Z,13.83
2019-05-17T19:43:37.692Z,13.20
2019-05-17T19:46:07.238Z,13.03
2019-05-17T19:48:36.946Z,13.17
2019-05-17T19:51:06.238Z,14.23
2019-05-17T19:53:35.804Z,14.50
2019-05-17T19:56:05.276Z,14.00
2019-05-17T19:58:34.746Z,13.87
2019-05-17T20:01:06.151Z,14.83
2019-05-17T20:03:35.530Z,16.50
2019-05-17T20:06:05.187Z,15.23
2019-05-17T20:08:36.460Z,16.03
2019-05-17T20:11:05.753Z,15.90
2019-05-17T20:13:35.538Z,16.13
2019-05-17T20:16:04.898Z,15.83
2019-05-17T20:18:34.164Z,16.73
2019-05-17T20:21:07.550Z,17.07
2019-05-17T20:23:37.032Z,17.20
2019-05-17T20:26:07.242Z,17.30
2019-05-17T20:28:36.575Z,17.40
2019-05-17T20:31:05.810Z,16.43
2019-05-17T20:33:35.014Z,16.30
2019-05-17T20:36:04.305Z,16.50
2019-05-17T20:38:33.693Z,17.00
2019-05-17T20:41:03.751Z,16.37
2019-05-17T20:43:32.941Z,16.30
2019-05-17T20:46:02.225Z,15.80
2019-05-17T20:48:31.477Z,16.63
2019-05-17T20:51:00.821Z,16.07
2019-05-17T20:53:30.414Z,16.27
2019-05-17T20:56:00.025Z,16.43
2019-05-17T20:58:29.627Z,16.20
2019-05-17T21:00:58.876Z,16.70
2019-05-17T21:03:28.053Z,17.50
2019-05-17T21:05:57.319Z,16.43
2019-05-17T21:08:27.013Z,15.10
2019-05-17T21:10:56.361Z,16.50
2019-05-17T21:13:25.571Z,15.87
2019-05-17T21:15:54.885Z,16.50
2019-05-17T21:18:24.324Z,16.27
2019-05-17T21:20:53.771Z,16.33
2019-05-17T21:23:22.944Z,17.13
2019-05-17T21:25:52.175Z,17.00
2019-05-17T21:28:21.388Z,17.53
2019-05-17T21:30:51.107Z,18.20
2019-05-17T21:33:20.464Z,16.93
2019-05-17T21:35:49.706Z,17.37
2019-05-17T21:38:19.396Z,17.43
2019-05-17T21:40:48.751Z,18.13
2019-05-17T21:43:18.080Z,17.33
2019-05-17T21:46:01.066Z,18.37
2019-05-17T21:48:18.875Z,17.67
2019-05-17T21:50:48.251Z,17.67
2019-05-17T21:53:17.540Z,18.50
2019-05-17T21:55:46.736Z,17.97
2019-05-17T21:58:20.140Z,18.50
2019-05-17T22:01:23.789Z,18.10
2019-05-17T22:03:53.381Z,18.93
2019-05-17T22:06:22.993Z,18.23
2019-05-17T22:08:52.184Z,17.70
2019-05-17T22:11:21.603Z,18.17
2019-05-17T22:13:51.512Z,18.40
2019-05-17T22:16:20.776Z,18.00
2019-05-17T22:18:50.293Z,18.70
2019-05-17T22:21:19.549Z,19.33
2019-05-17T22:23:48.799Z,19.33
2019-05-17T22:26:18.401Z,18.50
2019-05-17T22:28:47.670Z,19.17
2019-05-17T22:31:16.965Z,19.83
2019-05-17T22:33:46.239Z,18.87
2019-05-17T22:36:15.517Z,20.07
2019-05-17T22:38:44.774Z,20.57
2019-05-17T22:41:13.999Z,19.90
2019-05-17T22:43:43.230Z,21.20
2019-05-17T22:46:12.733Z,21.43
2019-05-17T22:48:42.037Z,20.17
2019-05-17T22:51:11.723Z,19.50
2019-05-17T22:53:40.982Z,20.60
2019-05-17T22:56:10.527Z,20.63
2019-05-17T22:58:39.714Z,20.70
2019-05-17T23:01:08.961Z,19.63
2019-05-17T23:03:38.268Z,20.10
2019-05-17T23:06:08.205Z,21.23
2019-05-17T23:08:37.856Z,22.33
2019-05-17T23:11:07.197Z,20.33
2019-05-17T23:13:36.611Z,21.33
2019-05-17T23:16:08.916Z,21.40
2019-05-17T23:18:38.538Z,21.30
2019-05-17T23:21:07.759Z,23.87
2019-05-17T23:23:36.962Z,23.73
2019-05-17T23:26:06.197Z,22.43
2019-05-17T23:28:35.454Z,21.40
2019-05-17T23:31:05.166Z,22.97
2019-05-17T23:33:34.344Z,23.23
2019-05-17T23:36:03.792Z,22.33
2019-05-17T23:38:32.966Z,23.40
2019-05-17T23:41:02.230Z,24.17
2019-05-17T23:43:31.467Z,23.70
2019-05-17T23:46:01.075Z,22.73
2019-05-17T23:48:30.596Z,22.57
2019-05-17T23:50:59.833Z,23.33
2019-05-17T23:53:29.184Z,23.27
2019-05-17T23:55:58.361Z,22.17
2019-05-17T23:58:27.657Z,23.13
